Manor, Canada
Current Conditions -  °F | °C
As of 2:00 AM on Wednesday 22 Oct 2014 (Local Time) from CYEN Reporting Station
Few Clouds Few Clouds  
Wind Chill: 50°   Ceiling: Unl
Heat Index: 50°   Visibility: 15mi
Dew Point: 43°   Wind: 8mph
Humidity: 76%   Direction: 300°WNW
Pressure: 29.6"   Gusts: NA
Location:  49.6°N, 102.08°W
Report Text: CYEN 220800Z 30007KT 15SM FEW250 10/06 A2960 RMK CI1 SLP031
Loading
Personal Weather Stations






























Interactive Weather Map
Tropical Storm Tracking
New forecast layout! Learn more

10-Day Weather Forecast

Advertisements
Track Severe Weather on mobile